createdAt,value
2023-04-22T00:02:23.292Z,46.80
2023-04-22T00:04:52.758Z,46.50
2023-04-22T00:07:20.643Z,46.30
2023-04-22T00:09:48.342Z,46.10
2023-04-22T00:12:16.110Z,46.00
2023-04-22T00:14:43.828Z,45.70
2023-04-22T00:17:11.531Z,45.60
2023-04-22T00:19:39.480Z,45.20
2023-04-22T00:22:08.666Z,45.10
2023-04-22T00:24:36.382Z,44.70
2023-04-22T00:27:04.300Z,44.70
2023-04-22T00:29:31.990Z,44.50
2023-04-22T00:31:59.661Z,44.30
2023-04-22T00:34:27.375Z,44.20
2023-04-22T00:36:55.121Z,44.00
2023-04-22T00:39:24.131Z,43.80
2023-04-22T00:41:51.795Z,43.50
2023-04-22T00:44:19.517Z,43.30
2023-04-22T00:46:47.213Z,43.40
2023-04-22T00:49:14.907Z,43.10
2023-04-22T00:51:44.047Z,42.90
2023-04-22T00:54:11.709Z,42.80
2023-04-22T00:56:40.742Z,42.60
2023-04-22T00:59:08.806Z,42.30
2023-04-22T01:01:36.847Z,42.30
2023-04-22T01:04:04.962Z,42.20
2023-04-22T01:06:33.212Z,41.80
2023-04-22T01:09:01.017Z,41.70
2023-04-22T01:11:28.718Z,41.70
2023-04-22T01:13:57.823Z,41.40
2023-04-22T01:16:25.841Z,41.30
2023-04-22T01:18:54.199Z,41.70
2023-04-22T01:21:22.685Z,41.00
2023-04-22T01:23:51.962Z,40.80
2023-04-22T01:26:19.652Z,40.50
2023-04-22T01:28:47.385Z,40.40
2023-04-22T01:31:15.051Z,40.40
2023-04-22T01:33:44.216Z,40.10
2023-04-22T01:36:13.269Z,40.00
2023-04-22T01:38:41.244Z,40.00
2023-04-22T01:41:10.260Z,39.80
2023-04-22T01:43:37.979Z,39.60
2023-04-22T01:46:05.891Z,39.60
2023-04-22T01:48:33.599Z,39.50
2023-04-22T01:51:01.353Z,39.40
2023-04-22T01:53:29.112Z,39.10
2023-04-22T01:55:56.845Z,39.20
2023-04-22T01:58:25.950Z,39.00
2023-04-22T02:00:53.662Z,38.80
2023-04-22T02:03:21.457Z,38.90
2023-04-22T02:05:49.207Z,38.80
2023-04-22T02:08:17.396Z,38.70
2023-04-22T02:10:45.888Z,38.70
2023-04-22T02:13:13.865Z,38.50
2023-04-22T02:15:42.961Z,38.50
2023-04-22T02:18:10.904Z,38.40
2023-04-22T02:20:38.701Z,38.40
2023-04-22T02:23:06.966Z,38.50
2023-04-22T02:25:34.696Z,38.40
2023-04-22T02:28:02.387Z,38.20
2023-04-22T02:30:30.285Z,38.40
2023-04-22T02:32:59.354Z,38.20
2023-04-22T02:35:27.619Z,38.30
2023-04-22T02:37:55.267Z,38.20
2023-04-22T02:40:25.656Z,38.10
2023-04-22T02:42:53.368Z,38.10
2023-04-22T02:45:22.642Z,38.20
2023-04-22T02:47:50.390Z,38.10
2023-04-22T02:50:19.638Z,38.10
2023-04-22T02:52:47.306Z,38.10
2023-04-22T02:55:14.976Z,38.10
2023-04-22T02:57:42.694Z,38.10
2023-04-22T03:00:11.403Z,38.10
2023-04-22T03:02:39.449Z,38.00
2023-04-22T03:05:11.543Z,38.10
2023-04-22T03:07:41.025Z,38.10
2023-04-22T03:10:09.799Z,38.10
2023-04-22T03:12:37.518Z,38.10
2023-04-22T03:15:06.090Z,38.20
2023-04-22T03:17:34.624Z,38.10
2023-04-22T03:20:06.382Z,38.10
2023-04-22T03:22:34.619Z,38.20
2023-04-22T03:25:06.272Z,38.20
2023-04-22T03:27:34.232Z,38.20
2023-04-22T03:30:01.931Z,38.20
2023-04-22T03:32:30.575Z,38.30
2023-04-22T03:35:17.328Z,38.20
2023-04-22T03:37:48.146Z,38.20
2023-04-22T03:40:21.389Z,38.30
2023-04-22T03:42:50.225Z,38.30
2023-04-22T03:45:20.745Z,38.30
2023-04-22T03:47:56.550Z,38.30
2023-04-22T03:50:32.688Z,38.40
2023-04-22T03:53:01.881Z,38.40
2023-04-22T03:55:31.012Z,38.40
2023-04-22T03:57:59.059Z,38.40
2023-04-22T04:00:27.292Z,38.50
2023-04-22T04:03:07.913Z,38.60
2023-04-22T04:05:36.451Z,38.50
2023-04-22T04:08:04.427Z,38.50
2023-04-22T04:10:34.394Z,38.60
2023-04-22T04:13:03.582Z,38.50
2023-04-22T04:15:38.837Z,38.70
2023-04-22T04:18:07.455Z,38.70
2023-04-22T04:20:35.227Z,38.80
2023-04-22T04:23:02.939Z,38.80
2023-04-22T04:25:37.536Z,38.80
2023-04-22T04:28:09.251Z,38.80
2023-04-22T04:30:38.189Z,38.80
2023-04-22T04:33:07.271Z,38.90
2023-04-22T04:35:37.486Z,38.90
2023-04-22T04:38:06.622Z,39.00
2023-04-22T04:40:37.017Z,39.10
2023-04-22T04:43:20.220Z,39.10
2023-04-22T04:45:53.316Z,39.10
2023-04-22T04:48:27.902Z,39.10
2023-04-22T04:51:02.095Z,39.20
2023-04-22T04:53:33.071Z,39.20
2023-04-22T04:56:00.792Z,39.30
2023-04-22T04:58:30.754Z,39.30
2023-04-22T05:01:12.504Z,39.40
2023-04-22T05:03:41.875Z,39.30
2023-04-22T05:06:10.525Z,39.40
2023-04-22T05:08:40.159Z,39.40
2023-04-22T05:11:10.379Z,39.50
2023-04-22T05:13:39.706Z,39.40
2023-04-22T05:16:10.571Z,39.50
2023-04-22T05:18:40.109Z,39.50
2023-04-22T05:21:10.208Z,39.60
2023-04-22T05:23:37.918Z,39.60
2023-04-22T05:26:07.116Z,39.60
2023-04-22T05:28:37.050Z,39.70
2023-04-22T05:31:07.496Z,39.70
2023-04-22T05:33:35.526Z,39.70
2023-04-22T05:36:03.234Z,39.70
2023-04-22T05:38:30.926Z,39.80
2023-04-22T05:40:58.698Z,39.70
2023-04-22T05:43:26.762Z,39.80
2023-04-22T05:46:01.234Z,39.90
2023-04-22T05:48:30.252Z,39.90
2023-04-22T05:51:01.371Z,39.90
2023-04-22T05:53:30.820Z,39.90
2023-04-22T05:56:00.912Z,40.00
2023-04-22T05:58:28.584Z,40.00
2023-04-22T06:01:00.993Z,40.00
2023-04-22T06:04:10.125Z,40.00
2023-04-22T06:06:38.271Z,40.10
2023-04-22T06:09:07.037Z,40.10
2023-04-22T06:11:34.714Z,40.20
2023-04-22T06:14:02.528Z,40.20
2023-04-22T06:16:31.576Z,40.30
2023-04-22T06:18:59.651Z,40.40
2023-04-22T06:21:29.477Z,40.40
2023-04-22T06:23:57.939Z,40.40
2023-04-22T06:26:25.629Z,40.40
2023-04-22T06:28:53.354Z,40.40
2023-04-22T06:31:21.858Z,40.50
2023-04-22T06:33:49.953Z,40.50
2023-04-22T06:36:19.218Z,40.60
2023-04-22T06:38:55.149Z,40.60
2023-04-22T06:41:41.482Z,40.70
2023-04-22T06:44:22.906Z,40.70
2023-04-22T06:47:06.255Z,40.70
2023-04-22T06:49:44.918Z,40.80
2023-04-22T06:52:25.554Z,40.80
2023-04-22T06:54:58.578Z,40.70
2023-04-22T06:57:26.308Z,40.80
2023-04-22T06:59:53.961Z,40.90
2023-04-22T07:02:22.881Z,40.90
2023-04-22T07:04:50.877Z,41.00
2023-04-22T07:07:18.550Z,41.00
2023-04-22T07:09:46.290Z,41.10
2023-04-22T07:12:15.460Z,41.00
2023-04-22T07:14:44.283Z,41.10
2023-04-22T07:17:12.026Z,41.20
2023-04-22T07:19:40.061Z,41.30
2023-04-22T07:22:08.043Z,41.30
2023-04-22T07:24:35.718Z,41.40
2023-04-22T07:27:03.736Z,41.40
2023-04-22T07:29:32.769Z,41.40
2023-04-22T07:32:00.452Z,41.40
2023-04-22T07:34:28.203Z,41.30
2023-04-22T07:36:55.854Z,41.30
2023-04-22T07:39:23.724Z,40.40
2023-04-22T07:41:51.765Z,39.40
2023-04-22T07:44:21.478Z,38.60
2023-04-22T07:46:50.636Z,37.20
2023-04-22T07:49:18.300Z,36.50
2023-04-22T07:51:45.978Z,38.80
2023-04-22T07:54:13.663Z,38.70
2023-04-22T07:56:41.390Z,36.90
2023-04-22T07:59:09.129Z,36.10
2023-04-22T08:01:36.769Z,34.40
2023-04-22T08:04:05.931Z,35.40
2023-04-22T08:06:33.709Z,34.40
2023-04-22T08:09:01.401Z,32.90
2023-04-22T08:11:29.181Z,33.60
2023-04-22T08:13:56.841Z,32.70
2023-04-22T08:16:24.567Z,33.50
2023-04-22T08:18:53.032Z,31.40
2023-04-22T08:21:22.397Z,31.50
2023-04-22T08:23:50.060Z,30.60
2023-04-22T08:26:17.710Z,30.80
2023-04-22T08:28:45.367Z,30.00
2023-04-22T08:31:13.680Z,29.80
2023-04-22T08:33:41.401Z,29.90
2023-04-22T08:36:09.565Z,29.90
2023-04-22T08:38:38.607Z,30.50
2023-04-22T08:41:06.476Z,28.90
2023-04-22T08:43:34.347Z,30.50
2023-04-22T08:46:02.079Z,29.90
2023-04-22T08:48:29.798Z,28.60
2023-04-22T08:50:57.503Z,28.60
2023-04-22T08:53:25.372Z,28.50
2023-04-22T08:55:54.589Z,28.40
2023-04-22T08:58:22.491Z,28.60
2023-04-22T09:00:50.275Z,28.60
2023-04-22T09:03:18.019Z,28.60
2023-04-22T09:05:45.960Z,28.80
2023-04-22T09:08:13.662Z,29.20
2023-04-22T09:10:41.353Z,29.40
2023-04-22T09:13:10.530Z,29.20
2023-04-22T09:15:38.246Z,29.30
2023-04-22T09:18:06.376Z,29.50
2023-04-22T09:20:34.066Z,29.30
2023-04-22T09:23:03.861Z,29.80
2023-04-22T09:25:33.450Z,29.90
2023-04-22T09:28:01.852Z,30.00
2023-04-22T09:30:32.130Z,30.00
2023-04-22T09:33:00.799Z,30.10
2023-04-22T09:35:29.512Z,30.00
2023-04-22T09:37:57.274Z,30.00
2023-04-22T09:40:25.349Z,30.30
2023-04-22T09:42:53.807Z,29.90
2023-04-22T09:45:32.498Z,29.80
2023-04-22T09:48:07.117Z,29.60
2023-04-22T09:50:34.865Z,29.70
2023-04-22T09:53:04.013Z,30.00
2023-04-22T09:55:33.000Z,30.00
2023-04-22T09:58:06.287Z,30.00
2023-04-22T10:00:35.620Z,30.00
2023-04-22T10:03:03.509Z,30.40
2023-04-22T10:05:31.274Z,30.10
2023-04-22T10:07:58.995Z,29.90
2023-04-22T10:10:26.680Z,30.00
2023-04-22T10:12:54.364Z,30.20
2023-04-22T10:15:22.586Z,30.10
2023-04-22T10:17:53.179Z,30.40
2023-04-22T10:20:21.328Z,30.10
2023-04-22T10:22:49.228Z,30.00
2023-04-22T10:25:22.874Z,30.10
2023-04-22T10:27:54.311Z,30.00
2023-04-22T10:30:28.016Z,30.00
2023-04-22T10:32:57.117Z,30.00
2023-04-22T10:35:29.026Z,30.20
2023-04-22T10:37:56.886Z,30.10
2023-04-22T10:40:24.664Z,30.00
2023-04-22T10:42:53.135Z,30.20
2023-04-22T10:45:21.917Z,30.00
2023-04-22T10:47:49.615Z,29.80
2023-04-22T10:50:21.304Z,29.80
2023-04-22T10:52:51.447Z,29.80
2023-04-22T10:55:19.449Z,29.80
2023-04-22T10:57:48.253Z,29.80
2023-04-22T11:00:52.359Z,29.90
2023-04-22T11:03:26.455Z,29.70
2023-04-22T11:06:16.898Z,29.80
2023-04-22T11:08:47.915Z,29.90
2023-04-22T11:11:15.739Z,30.00
2023-04-22T11:13:44.073Z,30.20
2023-04-22T11:16:11.872Z,30.30
2023-04-22T11:18:39.659Z,30.30
2023-04-22T11:21:08.746Z,30.20
2023-04-22T11:23:37.811Z,30.50
2023-04-22T11:26:06.738Z,30.20
2023-04-22T11:28:34.683Z,30.40
2023-04-22T11:31:03.390Z,30.40
2023-04-22T11:33:31.142Z,30.30
2023-04-22T11:35:59.114Z,30.30
2023-04-22T11:38:27.007Z,30.50
2023-04-22T11:40:57.702Z,30.60
2023-04-22T11:43:25.449Z,30.00
2023-04-22T11:45:53.175Z,30.30
2023-04-22T11:48:20.906Z,30.10
2023-04-22T11:50:48.667Z,30.10
2023-04-22T11:53:17.225Z,29.80
2023-04-22T11:55:45.605Z,29.80
2023-04-22T11:58:15.345Z,30.10
2023-04-22T12:00:43.785Z,30.20
2023-04-22T12:03:15.596Z,30.60
2023-04-22T12:05:44.485Z,30.50
2023-04-22T12:08:12.765Z,30.60
2023-04-22T12:10:42.176Z,30.20
2023-04-22T12:13:10.095Z,30.60
2023-04-22T12:15:43.050Z,30.60
2023-04-22T12:18:12.492Z,30.40
2023-04-22T12:20:40.886Z,30.60
2023-04-22T12:23:14.339Z,30.50
2023-04-22T12:25:42.409Z,30.80
2023-04-22T12:28:11.143Z,30.90
2023-04-22T12:30:38.846Z,30.50
2023-04-22T12:33:07.963Z,30.20
2023-04-22T12:35:35.959Z,30.90
2023-04-22T12:38:03.713Z,30.50
2023-04-22T12:40:31.481Z,30.20
2023-04-22T12:42:59.453Z,30.50
2023-04-22T12:45:27.299Z,30.80
2023-04-22T12:47:55.353Z,31.00
2023-04-22T12:50:24.465Z,31.20
2023-04-22T12:52:52.190Z,31.50
2023-04-22T12:55:20.889Z,31.40
2023-04-22T12:57:49.509Z,31.20
2023-04-22T13:00:17.607Z,31.20
2023-04-22T13:02:46.045Z,31.20
2023-04-22T13:05:13.869Z,31.10
2023-04-22T13:07:44.325Z,31.00
2023-04-22T13:10:14.415Z,31.10
2023-04-22T13:12:42.503Z,31.80
2023-04-22T13:15:11.189Z,31.50
2023-04-22T13:17:39.026Z,31.60
2023-04-22T13:20:09.458Z,31.70
2023-04-22T13:22:37.334Z,31.50
2023-04-22T13:25:07.366Z,31.70
2023-04-22T13:27:35.042Z,31.70
2023-04-22T13:30:03.725Z,31.60
2023-04-22T13:32:31.490Z,31.70
2023-04-22T13:35:02.729Z,31.50
2023-04-22T13:37:30.735Z,31.60
2023-04-22T13:39:58.473Z,31.40
2023-04-22T13:42:27.535Z,31.70
2023-04-22T13:44:55.211Z,31.40
2023-04-22T13:47:22.894Z,31.80
2023-04-22T13:49:50.673Z,31.80
2023-04-22T13:52:18.398Z,31.50
2023-04-22T13:54:46.179Z,32.00
2023-04-22T13:57:13.826Z,32.30
2023-04-22T13:59:43.327Z,32.20
2023-04-22T14:02:11.074Z,31.90
2023-04-22T14:04:38.774Z,31.90
2023-04-22T14:07:06.513Z,32.30
2023-04-22T14:09:34.656Z,33.40
2023-04-22T14:12:03.361Z,32.50
2023-04-22T14:14:31.127Z,32.90
2023-04-22T14:17:00.270Z,33.40
2023-04-22T14:19:30.152Z,32.40
2023-04-22T14:21:57.982Z,32.30
2023-04-22T14:24:25.778Z,31.90
2023-04-22T14:26:53.473Z,32.10
2023-04-22T14:29:21.280Z,32.60
2023-04-22T14:31:49.702Z,32.60
2023-04-22T14:34:18.765Z,32.40
2023-04-22T14:36:46.478Z,33.30
2023-04-22T14:39:14.186Z,33.00
2023-04-22T14:41:41.912Z,33.00
2023-04-22T14:44:09.595Z,33.60
2023-04-22T14:46:37.366Z,33.20
2023-04-22T14:49:05.255Z,33.00
2023-04-22T14:51:35.385Z,33.00
2023-04-22T14:54:03.474Z,32.80
2023-04-22T14:56:31.298Z,33.00
2023-04-22T14:58:59.070Z,32.70
2023-04-22T15:01:26.793Z,32.90
2023-04-22T15:03:54.690Z,33.00
2023-04-22T15:06:23.532Z,33.30
2023-04-22T15:08:52.718Z,33.00
2023-04-22T15:11:20.408Z,33.00
2023-04-22T15:13:48.072Z,33.40
2023-04-22T15:16:15.792Z,33.10
2023-04-22T15:18:43.653Z,33.40
2023-04-22T15:21:11.337Z,33.60
2023-04-22T15:23:39.071Z,33.70
2023-04-22T15:26:08.163Z,34.60
2023-04-22T15:28:35.866Z,34.40
2023-04-22T15:31:03.882Z,34.40
2023-04-22T15:33:31.636Z,34.00
2023-04-22T15:35:59.316Z,32.80
2023-04-22T15:38:26.998Z,32.60
2023-04-22T15:40:54.682Z,33.00
2023-04-22T15:43:23.743Z,33.00
2023-04-22T15:45:51.454Z,32.80
2023-04-22T15:48:19.119Z,33.30
2023-04-22T15:50:46.874Z,33.50
2023-04-22T15:53:14.529Z,33.80
2023-04-22T15:55:42.199Z,33.50
2023-04-22T15:58:09.951Z,35.00
2023-04-22T16:00:39.012Z,34.90
2023-04-22T16:03:06.749Z,35.20
2023-04-22T16:05:34.687Z,35.60
2023-04-22T16:08:02.498Z,35.80
2023-04-22T16:10:30.144Z,35.50
2023-04-22T16:12:57.832Z,35.00
2023-04-22T16:15:26.196Z,34.10
2023-04-22T16:17:55.366Z,33.30
2023-04-22T16:20:23.238Z,33.00
2023-04-22T16:22:50.949Z,32.90
2023-04-22T16:25:18.821Z,33.20
2023-04-22T16:27:46.934Z,32.70
2023-04-22T16:30:16.224Z,32.30
2023-04-22T16:32:44.095Z,32.20
2023-04-22T16:35:13.124Z,32.80
2023-04-22T16:37:40.856Z,32.70
2023-04-22T16:40:09.533Z,32.70
2023-04-22T16:42:37.227Z,32.60
2023-04-22T16:45:05.641Z,33.50
2023-04-22T16:47:33.372Z,33.30
2023-04-22T16:50:01.085Z,33.70
2023-04-22T16:52:31.054Z,33.80
2023-04-22T16:54:58.732Z,34.00
2023-04-22T16:57:26.381Z,34.60
2023-04-22T16:59:54.061Z,35.40
2023-04-22T17:02:21.847Z,35.30
2023-04-22T17:04:49.720Z,35.40
2023-04-22T17:07:17.517Z,35.40
2023-04-22T17:09:46.530Z,35.90
2023-04-22T17:12:14.226Z,36.00
2023-04-22T17:14:41.909Z,37.20
2023-04-22T17:17:09.613Z,37.20
2023-04-22T17:19:37.287Z,37.40
2023-04-22T17:22:05.097Z,37.80
2023-04-22T17:24:32.813Z,37.90
2023-04-22T17:27:02.813Z,38.20
2023-04-22T17:29:30.560Z,38.30
2023-04-22T17:31:58.493Z,38.40
2023-04-22T17:34:26.284Z,38.60
2023-04-22T17:36:54.016Z,38.80
2023-04-22T17:39:21.992Z,38.90
2023-04-22T17:41:49.663Z,39.10
2023-04-22T17:44:18.684Z,39.30
2023-04-22T17:46:46.485Z,39.50
2023-04-22T17:49:14.180Z,39.60
2023-04-22T17:51:41.903Z,39.70
2023-04-22T17:54:09.676Z,39.80
2023-04-22T17:56:37.433Z,39.90
2023-04-22T17:59:05.264Z,40.10
2023-04-22T18:01:34.257Z,40.10
2023-04-22T18:04:02.283Z,40.40
2023-04-22T18:06:30.548Z,40.50
2023-04-22T18:08:58.235Z,40.60
2023-04-22T18:11:27.779Z,40.70
2023-04-22T18:13:55.569Z,40.80
2023-04-22T18:16:23.293Z,41.00
2023-04-22T18:18:52.505Z,41.20
2023-04-22T18:21:20.383Z,41.30
2023-04-22T18:23:48.126Z,41.50
2023-04-22T18:26:15.869Z,41.70
2023-04-22T18:28:44.526Z,41.70
2023-04-22T18:31:12.278Z,41.90
2023-04-22T18:33:40.041Z,42.00
2023-04-22T18:36:09.519Z,42.00
2023-04-22T18:38:38.537Z,42.00
2023-04-22T18:41:06.795Z,42.00
2023-04-22T18:43:34.571Z,42.00
2023-04-22T18:46:02.241Z,42.00
2023-04-22T18:48:29.962Z,42.10
2023-04-22T18:50:57.623Z,42.20
2023-04-22T18:53:26.689Z,42.30
2023-04-22T18:55:54.405Z,42.50
2023-04-22T18:58:23.100Z,42.50
2023-04-22T19:00:51.414Z,42.50
2023-04-22T19:03:19.460Z,42.70
2023-04-22T19:05:47.321Z,42.70
2023-04-22T19:08:15.000Z,42.80
2023-04-22T19:10:44.072Z,42.90
2023-04-22T19:13:18.857Z,43.00
2023-04-22T19:15:56.876Z,43.00
2023-04-22T19:18:24.636Z,43.20
2023-04-22T19:20:52.394Z,43.20
2023-04-22T19:23:20.195Z,43.40
2023-04-22T19:25:49.263Z,43.50
2023-04-22T19:28:16.965Z,43.70
2023-04-22T19:30:44.705Z,43.80
2023-04-22T19:33:12.433Z,43.90
2023-04-22T19:35:40.123Z,44.10
2023-04-22T19:38:07.820Z,44.30
2023-04-22T19:40:35.761Z,44.40
2023-04-22T19:43:04.916Z,44.70
2023-04-22T19:45:32.639Z,44.90
2023-04-22T19:48:00.927Z,45.00
2023-04-22T19:50:29.079Z,45.10
2023-04-22T19:52:58.287Z,45.40
2023-04-22T19:55:26.536Z,45.60
2023-04-22T19:57:54.429Z,45.60
2023-04-22T20:00:23.634Z,46.40
2023-04-22T20:02:51.946Z,46.00
2023-04-22T20:05:20.926Z,46.00
2023-04-22T20:07:48.698Z,46.20
2023-04-22T20:10:16.433Z,46.30
2023-04-22T20:12:44.944Z,47.00
2023-04-22T20:15:13.404Z,46.20
2023-04-22T20:17:43.533Z,46.10
2023-04-22T20:20:14.935Z,46.10
2023-04-22T20:22:43.056Z,46.40
2023-04-22T20:25:13.713Z,46.20
2023-04-22T20:27:41.609Z,46.40
2023-04-22T20:30:10.264Z,46.40
2023-04-22T20:32:38.272Z,46.50
2023-04-22T20:35:11.197Z,46.50
2023-04-22T20:37:39.630Z,46.60
2023-04-22T20:40:09.179Z,46.60
2023-04-22T20:42:37.590Z,46.60
2023-04-22T20:45:06.573Z,46.70
2023-04-22T20:47:35.786Z,46.60
2023-04-22T20:50:04.202Z,46.60
2023-04-22T20:52:33.237Z,46.60
2023-04-22T20:55:00.954Z,46.70
2023-04-22T20:57:28.649Z,46.60
2023-04-22T20:59:56.352Z,46.60
2023-04-22T21:02:24.574Z,46.60
2023-04-22T21:04:52.429Z,46.60
2023-04-22T21:07:20.446Z,46.60
2023-04-22T21:09:50.681Z,46.60
2023-04-22T21:12:19.677Z,46.50
2023-04-22T21:14:47.969Z,46.50
2023-04-22T21:17:19.218Z,46.30
2023-04-22T21:19:48.519Z,46.30
2023-04-22T21:22:16.734Z,46.20
2023-04-22T21:24:44.451Z,46.30
2023-04-22T21:27:13.480Z,46.10
2023-04-22T21:29:41.694Z,46.00
2023-04-22T21:32:10.081Z,46.10
2023-04-22T21:34:38.273Z,46.00
2023-04-22T21:37:06.169Z,46.00
2023-04-22T21:39:33.892Z,45.90
2023-04-22T21:42:02.378Z,45.80
2023-04-22T21:44:31.493Z,45.70
2023-04-22T21:46:59.187Z,45.60
2023-04-22T21:49:26.889Z,45.50
2023-04-22T21:51:54.891Z,45.50
2023-04-22T21:54:22.605Z,45.40
2023-04-22T21:56:50.656Z,45.30
2023-04-22T21:59:18.570Z,45.20
2023-04-22T22:01:47.767Z,45.10
2023-04-22T22:04:16.427Z,44.90
2023-04-22T22:06:44.605Z,44.90
2023-04-22T22:09:12.531Z,44.80
2023-04-22T22:11:40.410Z,44.70
2023-04-22T22:14:08.114Z,44.50
2023-04-22T22:16:35.831Z,44.50
2023-04-22T22:19:05.270Z,44.30
2023-04-22T22:21:33.751Z,44.20
2023-04-22T22:24:01.532Z,44.00
2023-04-22T22:26:29.305Z,43.90
2023-04-22T22:28:56.994Z,43.90
2023-04-22T22:31:24.704Z,43.60
2023-04-22T22:33:52.636Z,43.60
2023-04-22T22:36:21.738Z,43.40
2023-04-22T22:38:49.449Z,43.40
2023-04-22T22:41:17.142Z,43.20
2023-04-22T22:43:44.817Z,43.00
2023-04-22T22:46:12.559Z,43.00
2023-04-22T22:48:40.618Z,42.80
2023-04-22T22:51:09.354Z,42.70
2023-04-22T22:53:38.507Z,42.60
2023-04-22T22:56:06.627Z,42.50
2023-04-22T22:58:36.108Z,42.30
2023-04-22T23:01:05.029Z,42.20
2023-04-22T23:03:32.878Z,42.20
2023-04-22T23:06:00.705Z,42.00
2023-04-22T23:08:28.392Z,42.00
2023-04-22T23:10:57.377Z,41.90
2023-04-22T23:13:25.058Z,41.70
2023-04-22T23:15:52.721Z,41.60
2023-04-22T23:18:20.576Z,41.50
2023-04-22T23:20:48.598Z,41.40
2023-04-22T23:23:16.970Z,41.20
2023-04-22T23:25:44.859Z,41.10
2023-04-22T23:28:14.579Z,41.00
2023-04-22T23:30:42.527Z,40.90
2023-04-22T23:33:10.329Z,40.80
2023-04-22T23:35:38.016Z,40.70
2023-04-22T23:38:06.474Z,40.60
2023-04-22T23:40:34.150Z,40.50
2023-04-22T23:43:01.807Z,40.40
2023-04-22T23:45:30.811Z,40.20
2023-04-22T23:47:58.505Z,40.10
2023-04-22T23:50:26.201Z,40.10
2023-04-22T23:52:53.902Z,40.00
2023-04-22T23:55:23.036Z,39.80
2023-04-22T23:57:51.574Z,39.70
